sensor_id;sensor_type;location;lat;lon;timestamp;P1;durP1;ratioP1;P2;durP2;ratioP2
10313;SDS011;5202;49.138;10.090;2024-01-30T00:01:08;12.67;;;8.67;;
10313;SDS011;5202;49.138;10.090;2024-01-30T00:03:38;14.60;;;8.80;;
10313;SDS011;5202;49.138;10.090;2024-01-30T00:06:06;13.73;;;8.77;;
10313;SDS011;5202;49.138;10.090;2024-01-30T00:08:35;12.60;;;8.33;;
10313;SDS011;5202;49.138;10.090;2024-01-30T00:11:05;13.57;;;9.07;;
10313;SDS011;5202;49.138;10.090;2024-01-30T00:13:35;12.97;;;7.93;;
10313;SDS011;5202;49.138;10.090;2024-01-30T00:16:04;12.07;;;8.43;;
10313;SDS011;5202;49.138;10.090;2024-01-30T00:18:33;10.23;;;7.53;;
10313;SDS011;5202;49.138;10.090;2024-01-30T00:21:01;11.63;;;7.93;;
10313;SDS011;5202;49.138;10.090;2024-01-30T00:23:31;12.10;;;7.43;;
10313;SDS011;5202;49.138;10.090;2024-01-30T00:25:59;12.37;;;8.73;;
10313;SDS011;5202;49.138;10.090;2024-01-30T00:28:29;12.47;;;8.23;;
10313;SDS011;5202;49.138;10.090;2024-01-30T00:30:57;12.37;;;8.40;;
10313;SDS011;5202;49.138;10.090;2024-01-30T00:33:26;12.37;;;8.17;;
10313;SDS011;5202;49.138;10.090;2024-01-30T00:35:54;12.73;;;8.73;;
10313;SDS011;5202;49.138;10.090;2024-01-30T00:38:23;13.00;;;8.07;;
10313;SDS011;5202;49.138;10.090;2024-01-30T00:40:51;13.13;;;7.47;;
10313;SDS011;5202;49.138;10.090;2024-01-30T00:43:20;11.13;;;7.63;;
10313;SDS011;5202;49.138;10.090;2024-01-30T00:45:50;13.03;;;7.83;;
10313;SDS011;5202;49.138;10.090;2024-01-30T00:48:19;9.50;;;7.27;;
10313;SDS011;5202;49.138;10.090;2024-01-30T00:50:48;13.37;;;8.10;;
10313;SDS011;5202;49.138;10.090;2024-01-30T00:53:16;10.40;;;7.17;;
10313;SDS011;5202;49.138;10.090;2024-01-30T00:55:45;10.63;;;7.70;;
10313;SDS011;5202;49.138;10.090;2024-01-30T00:58:13;10.60;;;7.17;;
10313;SDS011;5202;49.138;10.090;2024-01-30T01:00:42;10.77;;;7.40;;
10313;SDS011;5202;49.138;10.090;2024-01-30T01:03:12;10.93;;;7.53;;
10313;SDS011;5202;49.138;10.090;2024-01-30T01:05:41;11.13;;;7.73;;
10313;SDS011;5202;49.138;10.090;2024-01-30T01:08:10;10.10;;;7.93;;
10313;SDS011;5202;49.138;10.090;2024-01-30T01:10:39;11.93;;;8.40;;
10313;SDS011;5202;49.138;10.090;2024-01-30T01:13:07;12.47;;;8.20;;
10313;SDS011;5202;49.138;10.090;2024-01-30T01:15:35;11.23;;;8.80;;
10313;SDS011;5202;49.138;10.090;2024-01-30T01:18:04;12.13;;;8.40;;
10313;SDS011;5202;49.138;10.090;2024-01-30T01:20:34;12.47;;;9.10;;
10313;SDS011;5202;49.138;10.090;2024-01-30T01:23:03;12.17;;;8.33;;
10313;SDS011;5202;49.138;10.090;2024-01-30T01:25:32;11.13;;;7.83;;
10313;SDS011;5202;49.138;10.090;2024-01-30T01:28:00;13.60;;;8.13;;
10313;SDS011;5202;49.138;10.090;2024-01-30T01:30:28;8.73;;;6.53;;
10313;SDS011;5202;49.138;10.090;2024-01-30T01:32:57;10.60;;;7.53;;
10313;SDS011;5202;49.138;10.090;2024-01-30T01:35:29;12.57;;;8.33;;
10313;SDS011;5202;49.138;10.090;2024-01-30T01:37:59;10.63;;;7.30;;
10313;SDS011;5202;49.138;10.090;2024-01-30T01:40:27;13.00;;;7.87;;
10313;SDS011;5202;49.138;10.090;2024-01-30T01:42:56;10.57;;;7.40;;
10313;SDS011;5202;49.138;10.090;2024-01-30T01:45:24;11.43;;;7.53;;
10313;SDS011;5202;49.138;10.090;2024-01-30T01:47:53;10.50;;;7.43;;
10313;SDS011;5202;49.138;10.090;2024-01-30T01:50:22;11.60;;;7.77;;
10313;SDS011;5202;49.138;10.090;2024-01-30T01:52:52;11.47;;;7.67;;
10313;SDS011;5202;49.138;10.090;2024-01-30T01:55:22;11.33;;;8.47;;
10313;SDS011;5202;49.138;10.090;2024-01-30T01:57:53;10.20;;;8.37;;
10313;SDS011;5202;49.138;10.090;2024-01-30T02:00:21;9.10;;;7.63;;
10313;SDS011;5202;49.138;10.090;2024-01-30T02:02:51;12.30;;;9.00;;
10313;SDS011;5202;49.138;10.090;2024-01-30T02:05:20;12.27;;;8.37;;
10313;SDS011;5202;49.138;10.090;2024-01-30T02:07:49;11.57;;;8.20;;
10313;SDS011;5202;49.138;10.090;2024-01-30T02:10:19;11.67;;;8.37;;
10313;SDS011;5202;49.138;10.090;2024-01-30T02:12:49;12.73;;;9.40;;
10313;SDS011;5202;49.138;10.090;2024-01-30T02:15:18;12.93;;;8.93;;
10313;SDS011;5202;49.138;10.090;2024-01-30T02:17:46;9.83;;;8.60;;
10313;SDS011;5202;49.138;10.090;2024-01-30T02:20:15;14.50;;;9.83;;
10313;SDS011;5202;49.138;10.090;2024-01-30T02:22:45;11.50;;;9.77;;
10313;SDS011;5202;49.138;10.090;2024-01-30T02:25:14;14.90;;;10.30;;
10313;SDS011;5202;49.138;10.090;2024-01-30T02:27:42;11.80;;;9.70;;
10313;SDS011;5202;49.138;10.090;2024-01-30T02:30:11;12.30;;;9.90;;
10313;SDS011;5202;49.138;10.090;2024-01-30T02:32:40;12.47;;;9.90;;
10313;SDS011;5202;49.138;10.090;2024-01-30T02:35:09;12.30;;;9.57;;
10313;SDS011;5202;49.138;10.090;2024-01-30T02:37:37;12.30;;;9.50;;
10313;SDS011;5202;49.138;10.090;2024-01-30T02:40:07;14.20;;;9.33;;
10313;SDS011;5202;49.138;10.090;2024-01-30T02:42:36;11.20;;;9.10;;
10313;SDS011;5202;49.138;10.090;2024-01-30T02:45:05;11.40;;;8.73;;
10313;SDS011;5202;49.138;10.090;2024-01-30T02:47:34;10.80;;;9.03;;
10313;SDS011;5202;49.138;10.090;2024-01-30T02:50:03;9.87;;;8.83;;
10313;SDS011;5202;49.138;10.090;2024-01-30T02:52:33;10.30;;;8.27;;
10313;SDS011;5202;49.138;10.090;2024-01-30T02:55:01;11.37;;;8.93;;
10313;SDS011;5202;49.138;10.090;2024-01-30T02:57:32;11.10;;;8.77;;
10313;SDS011;5202;49.138;10.090;2024-01-30T03:00:00;10.87;;;9.03;;
10313;SDS011;5202;49.138;10.090;2024-01-30T03:02:30;9.60;;;7.93;;
10313;SDS011;5202;49.138;10.090;2024-01-30T03:04:59;10.50;;;8.70;;
10313;SDS011;5202;49.138;10.090;2024-01-30T03:07:28;11.83;;;8.77;;
10313;SDS011;5202;49.138;10.090;2024-01-30T03:09:57;9.70;;;8.40;;
10313;SDS011;5202;49.138;10.090;2024-01-30T03:12:25;10.13;;;8.87;;
10313;SDS011;5202;49.138;10.090;2024-01-30T03:14:55;11.53;;;9.50;;
10313;SDS011;5202;49.138;10.090;2024-01-30T03:17:23;11.17;;;9.00;;
10313;SDS011;5202;49.138;10.090;2024-01-30T03:19:52;12.03;;;9.00;;
10313;SDS011;5202;49.138;10.090;2024-01-30T03:22:20;11.47;;;9.07;;
10313;SDS011;5202;49.138;10.090;2024-01-30T03:24:49;11.73;;;9.30;;
10313;SDS011;5202;49.138;10.090;2024-01-30T03:27:18;10.13;;;8.80;;
10313;SDS011;5202;49.138;10.090;2024-01-30T03:29:47;11.03;;;9.00;;
10313;SDS011;5202;49.138;10.090;2024-01-30T03:32:16;11.80;;;8.93;;
10313;SDS011;5202;49.138;10.090;2024-01-30T03:34:45;11.17;;;9.20;;
10313;SDS011;5202;49.138;10.090;2024-01-30T03:37:13;10.37;;;8.70;;
10313;SDS011;5202;49.138;10.090;2024-01-30T03:39:42;10.80;;;8.47;;
10313;SDS011;5202;49.138;10.090;2024-01-30T03:42:11;12.00;;;8.63;;
10313;SDS011;5202;49.138;10.090;2024-01-30T03:44:45;11.57;;;8.53;;
10313;SDS011;5202;49.138;10.090;2024-01-30T03:47:14;11.20;;;8.70;;
10313;SDS011;5202;49.138;10.090;2024-01-30T03:49:43;11.17;;;8.60;;
10313;SDS011;5202;49.138;10.090;2024-01-30T03:52:12;30.83;;;17.87;;
10313;SDS011;5202;49.138;10.090;2024-01-30T03:54:41;15.67;;;11.50;;
10313;SDS011;5202;49.138;10.090;2024-01-30T03:57:27;11.13;;;9.23;;
10313;SDS011;5202;49.138;10.090;2024-01-30T04:00:20;10.40;;;7.93;;
10313;SDS011;5202;49.138;10.090;2024-01-30T04:02:49;12.03;;;8.97;;
10313;SDS011;5202;49.138;10.090;2024-01-30T04:05:19;10.10;;;8.67;;
10313;SDS011;5202;49.138;10.090;2024-01-30T04:07:49;11.50;;;8.87;;
10313;SDS011;5202;49.138;10.090;2024-01-30T04:10:18;11.33;;;8.50;;
10313;SDS011;5202;49.138;10.090;2024-01-30T04:12:46;13.50;;;10.27;;
10313;SDS011;5202;49.138;10.090;2024-01-30T04:15:14;21.70;;;14.70;;
10313;SDS011;5202;49.138;10.090;2024-01-30T04:17:43;22.97;;;13.17;;
10313;SDS011;5202;49.138;10.090;2024-01-30T04:20:13;18.63;;;12.80;;
10313;SDS011;5202;49.138;10.090;2024-01-30T04:22:44;14.37;;;10.33;;
10313;SDS011;5202;49.138;10.090;2024-01-30T04:25:14;14.37;;;10.27;;
10313;SDS011;5202;49.138;10.090;2024-01-30T04:27:42;14.20;;;10.47;;
10313;SDS011;5202;49.138;10.090;2024-01-30T04:30:11;14.67;;;10.97;;
10313;SDS011;5202;49.138;10.090;2024-01-30T04:32:40;16.03;;;11.43;;
10313;SDS011;5202;49.138;10.090;2024-01-30T04:35:09;11.87;;;8.87;;
10313;SDS011;5202;49.138;10.090;2024-01-30T04:37:38;9.63;;;8.63;;
10313;SDS011;5202;49.138;10.090;2024-01-30T04:40:08;10.87;;;7.87;;
10313;SDS011;5202;49.138;10.090;2024-01-30T04:42:38;9.97;;;7.80;;
10313;SDS011;5202;49.138;10.090;2024-01-30T04:45:06;8.57;;;7.43;;
10313;SDS011;5202;49.138;10.090;2024-01-30T04:47:36;12.40;;;7.83;;
10313;SDS011;5202;49.138;10.090;2024-01-30T04:50:06;9.30;;;8.30;;
10313;SDS011;5202;49.138;10.090;2024-01-30T04:52:35;9.00;;;7.87;;
10313;SDS011;5202;49.138;10.090;2024-01-30T04:55:04;11.33;;;8.50;;
10313;SDS011;5202;49.138;10.090;2024-01-30T04:57:35;11.00;;;8.03;;
10313;SDS011;5202;49.138;10.090;2024-01-30T05:00:04;11.87;;;8.40;;
10313;SDS011;5202;49.138;10.090;2024-01-30T05:02:34;11.87;;;9.10;;
10313;SDS011;5202;49.138;10.090;2024-01-30T05:05:04;10.03;;;8.63;;
10313;SDS011;5202;49.138;10.090;2024-01-30T05:07:33;10.50;;;8.47;;
10313;SDS011;5202;49.138;10.090;2024-01-30T05:10:02;12.00;;;8.13;;
10313;SDS011;5202;49.138;10.090;2024-01-30T05:12:32;10.37;;;8.37;;
10313;SDS011;5202;49.138;10.090;2024-01-30T05:15:03;10.17;;;7.87;;
10313;SDS011;5202;49.138;10.090;2024-01-30T05:17:33;9.70;;;7.63;;
10313;SDS011;5202;49.138;10.090;2024-01-30T05:20:01;10.20;;;7.30;;
10313;SDS011;5202;49.138;10.090;2024-01-30T05:22:31;9.37;;;7.67;;
10313;SDS011;5202;49.138;10.090;2024-01-30T05:24:59;11.40;;;7.83;;
10313;SDS011;5202;49.138;10.090;2024-01-30T05:27:28;9.47;;;7.77;;
10313;SDS011;5202;49.138;10.090;2024-01-30T05:29:56;10.30;;;8.07;;
10313;SDS011;5202;49.138;10.090;2024-01-30T05:32:26;10.40;;;8.10;;
10313;SDS011;5202;49.138;10.090;2024-01-30T05:34:55;11.13;;;8.60;;
10313;SDS011;5202;49.138;10.090;2024-01-30T05:37:23;13.73;;;8.93;;
10313;SDS011;5202;49.138;10.090;2024-01-30T05:39:58;10.37;;;8.87;;
10313;SDS011;5202;49.138;10.090;2024-01-30T05:42:26;13.13;;;8.53;;
10313;SDS011;5202;49.138;10.090;2024-01-30T05:44:55;13.80;;;8.53;;
10313;SDS011;5202;49.138;10.090;2024-01-30T05:47:24;9.63;;;8.27;;
10313;SDS011;5202;49.138;10.090;2024-01-30T05:49:53;12.87;;;9.17;;
10313;SDS011;5202;49.138;10.090;2024-01-30T05:52:22;11.40;;;8.53;;
10313;SDS011;5202;49.138;10.090;2024-01-30T05:54:50;10.47;;;8.63;;
10313;SDS011;5202;49.138;10.090;2024-01-30T05:57:19;10.77;;;7.97;;
10313;SDS011;5202;49.138;10.090;2024-01-30T05:59:47;10.57;;;8.67;;
10313;SDS011;5202;49.138;10.090;2024-01-30T06:02:18;10.73;;;8.50;;
10313;SDS011;5202;49.138;10.090;2024-01-30T06:04:46;9.33;;;7.77;;
10313;SDS011;5202;49.138;10.090;2024-01-30T06:07:16;10.17;;;7.87;;
10313;SDS011;5202;49.138;10.090;2024-01-30T06:09:45;9.63;;;7.70;;
10313;SDS011;5202;49.138;10.090;2024-01-30T06:12:13;9.50;;;7.77;;
10313;SDS011;5202;49.138;10.090;2024-01-30T06:14:42;10.57;;;8.53;;
10313;SDS011;5202;49.138;10.090;2024-01-30T06:17:13;12.17;;;8.10;;
10313;SDS011;5202;49.138;10.090;2024-01-30T06:19:41;10.53;;;8.07;;
10313;SDS011;5202;49.138;10.090;2024-01-30T06:22:10;9.13;;;7.60;;
10313;SDS011;5202;49.138;10.090;2024-01-30T06:24:40;9.37;;;7.47;;
10313;SDS011;5202;49.138;10.090;2024-01-30T06:27:08;9.30;;;7.57;;
10313;SDS011;5202;49.138;10.090;2024-01-30T06:29:40;11.57;;;7.93;;
10313;SDS011;5202;49.138;10.090;2024-01-30T06:32:42;11.53;;;8.20;;
10313;SDS011;5202;49.138;10.090;2024-01-30T06:35:11;10.53;;;8.17;;
10313;SDS011;5202;49.138;10.090;2024-01-30T06:37:39;9.20;;;7.80;;
10313;SDS011;5202;49.138;10.090;2024-01-30T06:40:09;9.40;;;7.50;;
10313;SDS011;5202;49.138;10.090;2024-01-30T06:42:39;8.83;;;7.43;;
10313;SDS011;5202;49.138;10.090;2024-01-30T06:45:08;10.77;;;8.00;;
10313;SDS011;5202;49.138;10.090;2024-01-30T06:47:37;9.10;;;7.70;;
10313;SDS011;5202;49.138;10.090;2024-01-30T06:50:06;11.20;;;7.33;;
10313;SDS011;5202;49.138;10.090;2024-01-30T06:52:35;9.13;;;7.90;;
10313;SDS011;5202;49.138;10.090;2024-01-30T06:55:04;8.83;;;7.57;;
10313;SDS011;5202;49.138;10.090;2024-01-30T06:57:35;9.53;;;8.23;;
10313;SDS011;5202;49.138;10.090;2024-01-30T07:00:03;9.40;;;8.03;;
10313;SDS011;5202;49.138;10.090;2024-01-30T07:02:33;10.47;;;7.80;;
10313;SDS011;5202;49.138;10.090;2024-01-30T07:05:03;9.73;;;7.90;;
10313;SDS011;5202;49.138;10.090;2024-01-30T07:07:33;9.70;;;8.10;;
10313;SDS011;5202;49.138;10.090;2024-01-30T07:10:01;9.40;;;7.73;;
10313;SDS011;5202;49.138;10.090;2024-01-30T07:12:32;9.57;;;8.57;;
10313;SDS011;5202;49.138;10.090;2024-01-30T07:15:02;12.37;;;8.70;;
10313;SDS011;5202;49.138;10.090;2024-01-30T07:17:34;10.93;;;7.70;;
10313;SDS011;5202;49.138;10.090;2024-01-30T07:20:04;9.03;;;7.83;;
10313;SDS011;5202;49.138;10.090;2024-01-30T07:22:38;10.33;;;7.53;;
10313;SDS011;5202;49.138;10.090;2024-01-30T07:25:06;13.33;;;8.70;;
10313;SDS011;5202;49.138;10.090;2024-01-30T07:27:37;13.63;;;9.27;;
10313;SDS011;5202;49.138;10.090;2024-01-30T07:30:06;10.97;;;8.17;;
10313;SDS011;5202;49.138;10.090;2024-01-30T07:32:38;11.70;;;8.37;;
10313;SDS011;5202;49.138;10.090;2024-01-30T07:35:06;9.70;;;7.57;;
10313;SDS011;5202;49.138;10.090;2024-01-30T07:37:35;9.20;;;8.00;;
10313;SDS011;5202;49.138;10.090;2024-01-30T07:40:04;9.43;;;8.17;;
10313;SDS011;5202;49.138;10.090;2024-01-30T07:42:34;11.10;;;8.37;;
10313;SDS011;5202;49.138;10.090;2024-01-30T07:45:04;10.83;;;8.17;;
10313;SDS011;5202;49.138;10.090;2024-01-30T07:47:33;12.53;;;8.30;;
10313;SDS011;5202;49.138;10.090;2024-01-30T07:50:02;9.67;;;7.80;;
10313;SDS011;5202;49.138;10.090;2024-01-30T07:52:31;10.97;;;7.80;;
10313;SDS011;5202;49.138;10.090;2024-01-30T07:54:59;13.87;;;8.73;;
10313;SDS011;5202;49.138;10.090;2024-01-30T07:57:28;10.03;;;8.40;;
10313;SDS011;5202;49.138;10.090;2024-01-30T07:59:57;10.90;;;8.90;;
10313;SDS011;5202;49.138;10.090;2024-01-30T08:02:27;12.60;;;9.03;;
10313;SDS011;5202;49.138;10.090;2024-01-30T08:04:55;11.97;;;8.63;;
10313;SDS011;5202;49.138;10.090;2024-01-30T08:07:24;14.87;;;9.30;;
10313;SDS011;5202;49.138;10.090;2024-01-30T08:09:53;14.10;;;10.23;;
10313;SDS011;5202;49.138;10.090;2024-01-30T08:12:21;13.63;;;9.97;;
10313;SDS011;5202;49.138;10.090;2024-01-30T08:14:49;12.37;;;10.27;;
10313;SDS011;5202;49.138;10.090;2024-01-30T08:17:18;11.87;;;9.50;;
10313;SDS011;5202;49.138;10.090;2024-01-30T08:19:48;14.50;;;10.73;;
10313;SDS011;5202;49.138;10.090;2024-01-30T08:22:17;16.87;;;10.63;;
10313;SDS011;5202;49.138;10.090;2024-01-30T08:24:45;15.27;;;10.77;;
10313;SDS011;5202;49.138;10.090;2024-01-30T08:27:14;15.47;;;10.37;;
10313;SDS011;5202;49.138;10.090;2024-01-30T08:29:42;12.63;;;9.83;;
10313;SDS011;5202;49.138;10.090;2024-01-30T08:32:12;12.77;;;10.77;;
10313;SDS011;5202;49.138;10.090;2024-01-30T08:34:40;25.97;;;14.57;;
10313;SDS011;5202;49.138;10.090;2024-01-30T08:37:10;19.23;;;12.63;;
10313;SDS011;5202;49.138;10.090;2024-01-30T08:39:43;15.83;;;11.17;;
10313;SDS011;5202;49.138;10.090;2024-01-30T08:42:11;15.40;;;10.53;;
10313;SDS011;5202;49.138;10.090;2024-01-30T08:44:43;14.93;;;10.57;;
10313;SDS011;5202;49.138;10.090;2024-01-30T08:47:11;11.80;;;10.03;;
10313;SDS011;5202;49.138;10.090;2024-01-30T08:49:40;12.17;;;10.33;;
10313;SDS011;5202;49.138;10.090;2024-01-30T08:52:16;14.13;;;10.30;;
10313;SDS011;5202;49.138;10.090;2024-01-30T08:54:45;17.87;;;10.97;;
10313;SDS011;5202;49.138;10.090;2024-01-30T08:57:13;14.47;;;10.97;;
10313;SDS011;5202;49.138;10.090;2024-01-30T08:59:42;16.37;;;10.77;;
10313;SDS011;5202;49.138;10.090;2024-01-30T09:02:11;14.97;;;10.80;;
10313;SDS011;5202;49.138;10.090;2024-01-30T09:04:44;13.67;;;10.53;;
10313;SDS011;5202;49.138;10.090;2024-01-30T09:07:13;17.03;;;10.53;;
10313;SDS011;5202;49.138;10.090;2024-01-30T09:09:53;12.93;;;9.73;;
10313;SDS011;5202;49.138;10.090;2024-01-30T09:12:21;16.77;;;10.33;;
10313;SDS011;5202;49.138;10.090;2024-01-30T09:14:50;13.30;;;10.13;;
10313;SDS011;5202;49.138;10.090;2024-01-30T09:17:18;16.80;;;11.53;;
10313;SDS011;5202;49.138;10.090;2024-01-30T09:19:46;13.90;;;11.17;;
10313;SDS011;5202;49.138;10.090;2024-01-30T09:22:15;13.47;;;9.93;;
10313;SDS011;5202;49.138;10.090;2024-01-30T09:24:44;11.97;;;10.03;;
10313;SDS011;5202;49.138;10.090;2024-01-30T09:27:14;11.70;;;7.80;;
10313;SDS011;5202;49.138;10.090;2024-01-30T09:29:44;20.20;;;10.90;;
10313;SDS011;5202;49.138;10.090;2024-01-30T09:32:16;13.03;;;9.73;;
10313;SDS011;5202;49.138;10.090;2024-01-30T09:34:45;15.90;;;10.07;;
10313;SDS011;5202;49.138;10.090;2024-01-30T09:37:14;15.80;;;10.57;;
10313;SDS011;5202;49.138;10.090;2024-01-30T09:39:46;12.83;;;10.30;;
10313;SDS011;5202;49.138;10.090;2024-01-30T09:42:20;14.50;;;10.30;;
10313;SDS011;5202;49.138;10.090;2024-01-30T09:44:54;13.60;;;9.93;;
10313;SDS011;5202;49.138;10.090;2024-01-30T09:47:24;14.10;;;9.63;;
10313;SDS011;5202;49.138;10.090;2024-01-30T09:49:53;13.83;;;10.23;;
10313;SDS011;5202;49.138;10.090;2024-01-30T09:52:23;13.87;;;9.30;;
10313;SDS011;5202;49.138;10.090;2024-01-30T09:54:51;12.50;;;10.20;;
10313;SDS011;5202;49.138;10.090;2024-01-30T09:57:22;14.87;;;9.20;;
10313;SDS011;5202;49.138;10.090;2024-01-30T09:59:52;16.00;;;8.40;;
10313;SDS011;5202;49.138;10.090;2024-01-30T10:02:21;13.13;;;9.07;;
10313;SDS011;5202;49.138;10.090;2024-01-30T10:04:51;17.33;;;9.87;;
10313;SDS011;5202;49.138;10.090;2024-01-30T10:07:20;14.93;;;10.00;;
10313;SDS011;5202;49.138;10.090;2024-01-30T10:09:49;19.07;;;12.03;;
10313;SDS011;5202;49.138;10.090;2024-01-30T10:12:18;19.67;;;12.03;;
10313;SDS011;5202;49.138;10.090;2024-01-30T10:14:48;17.07;;;11.77;;
10313;SDS011;5202;49.138;10.090;2024-01-30T10:17:16;17.73;;;11.37;;
10313;SDS011;5202;49.138;10.090;2024-01-30T10:19:58;18.43;;;11.50;;
10313;SDS011;5202;49.138;10.090;2024-01-30T10:22:28;22.80;;;11.93;;
10313;SDS011;5202;49.138;10.090;2024-01-30T10:24:56;17.13;;;11.90;;
10313;SDS011;5202;49.138;10.090;2024-01-30T10:27:28;17.60;;;11.73;;
10313;SDS011;5202;49.138;10.090;2024-01-30T10:29:59;15.60;;;10.73;;
10313;SDS011;5202;49.138;10.090;2024-01-30T10:32:43;16.97;;;11.03;;
10313;SDS011;5202;49.138;10.090;2024-01-30T10:35:12;16.03;;;10.23;;
10313;SDS011;5202;49.138;10.090;2024-01-30T10:37:41;12.07;;;8.27;;
10313;SDS011;5202;49.138;10.090;2024-01-30T10:40:13;11.93;;;7.40;;
10313;SDS011;5202;49.138;10.090;2024-01-30T10:42:43;8.73;;;6.90;;
10313;SDS011;5202;49.138;10.090;2024-01-30T10:45:15;9.63;;;6.70;;
10313;SDS011;5202;49.138;10.090;2024-01-30T10:47:44;10.73;;;7.20;;
10313;SDS011;5202;49.138;10.090;2024-01-30T10:50:17;10.87;;;7.70;;
10313;SDS011;5202;49.138;10.090;2024-01-30T10:52:47;9.67;;;8.07;;
10313;SDS011;5202;49.138;10.090;2024-01-30T10:55:15;10.33;;;8.20;;
10313;SDS011;5202;49.138;10.090;2024-01-30T10:57:46;9.30;;;6.60;;
10313;SDS011;5202;49.138;10.090;2024-01-30T11:00:16;9.47;;;5.93;;
10313;SDS011;5202;49.138;10.090;2024-01-30T11:02:49;10.10;;;6.17;;
10313;SDS011;5202;49.138;10.090;2024-01-30T11:05:23;7.87;;;6.13;;
10313;SDS011;5202;49.138;10.090;2024-01-30T11:07:59;8.47;;;5.97;;
10313;SDS011;5202;49.138;10.090;2024-01-30T11:10:44;7.90;;;6.73;;
10313;SDS011;5202;49.138;10.090;2024-01-30T11:13:14;14.97;;;6.87;;
10313;SDS011;5202;49.138;10.090;2024-01-30T11:15:44;9.50;;;6.63;;
10313;SDS011;5202;49.138;10.090;2024-01-30T11:18:22;10.57;;;6.37;;
10313;SDS011;5202;49.138;10.090;2024-01-30T11:20:52;10.20;;;6.70;;
10313;SDS011;5202;49.138;10.090;2024-01-30T11:23:23;9.03;;;7.03;;
10313;SDS011;5202;49.138;10.090;2024-01-30T11:25:54;9.87;;;7.47;;
10313;SDS011;5202;49.138;10.090;2024-01-30T11:28:24;18.23;;;7.73;;
10313;SDS011;5202;49.138;10.090;2024-01-30T11:31:04;11.30;;;7.47;;
10313;SDS011;5202;49.138;10.090;2024-01-30T11:33:35;13.33;;;7.47;;
10313;SDS011;5202;49.138;10.090;2024-01-30T11:36:04;9.67;;;7.67;;
10313;SDS011;5202;49.138;10.090;2024-01-30T11:38:34;8.83;;;6.50;;
10313;SDS011;5202;49.138;10.090;2024-01-30T11:41:03;10.37;;;6.33;;
10313;SDS011;5202;49.138;10.090;2024-01-30T11:43:32;18.83;;;6.00;;
10313;SDS011;5202;49.138;10.090;2024-01-30T11:46:01;9.03;;;5.87;;
10313;SDS011;5202;49.138;10.090;2024-01-30T11:48:32;7.27;;;5.17;;
10313;SDS011;5202;49.138;10.090;2024-01-30T11:51:00;7.43;;;5.13;;
10313;SDS011;5202;49.138;10.090;2024-01-30T11:53:29;7.30;;;4.70;;
10313;SDS011;5202;49.138;10.090;2024-01-30T11:55:58;7.33;;;5.07;;
10313;SDS011;5202;49.138;10.090;2024-01-30T11:58:26;7.73;;;5.80;;
10313;SDS011;5202;49.138;10.090;2024-01-30T12:00:55;7.60;;;5.60;;
10313;SDS011;5202;49.138;10.090;2024-01-30T12:03:24;8.10;;;5.83;;
10313;SDS011;5202;49.138;10.090;2024-01-30T12:05:58;7.40;;;5.77;;
10313;SDS011;5202;49.138;10.090;2024-01-30T12:08:27;8.97;;;5.40;;
10313;SDS011;5202;49.138;10.090;2024-01-30T12:10:56;6.93;;;5.43;;
10313;SDS011;5202;49.138;10.090;2024-01-30T12:13:25;6.73;;;5.03;;
10313;SDS011;5202;49.138;10.090;2024-01-30T12:15:59;5.53;;;4.47;;
10313;SDS011;5202;49.138;10.090;2024-01-30T12:18:29;6.27;;;4.97;;
10313;SDS011;5202;49.138;10.090;2024-01-30T12:20:59;6.97;;;4.93;;
10313;SDS011;5202;49.138;10.090;2024-01-30T12:23:28;7.40;;;4.43;;
10313;SDS011;5202;49.138;10.090;2024-01-30T12:25:57;9.37;;;4.87;;
10313;SDS011;5202;49.138;10.090;2024-01-30T12:28:25;7.27;;;5.30;;
10313;SDS011;5202;49.138;10.090;2024-01-30T12:30:55;13.03;;;4.63;;
10313;SDS011;5202;49.138;10.090;2024-01-30T12:33:26;9.37;;;6.27;;
10313;SDS011;5202;49.138;10.090;2024-01-30T12:35:55;10.27;;;5.60;;
10313;SDS011;5202;49.138;10.090;2024-01-30T12:38:30;7.30;;;4.60;;
10313;SDS011;5202;49.138;10.090;2024-01-30T12:40:59;6.93;;;4.60;;
10313;SDS011;5202;49.138;10.090;2024-01-30T12:43:28;5.57;;;3.90;;
10313;SDS011;5202;49.138;10.090;2024-01-30T12:46:04;6.43;;;3.53;;
10313;SDS011;5202;49.138;10.090;2024-01-30T12:48:34;10.37;;;4.53;;
10313;SDS011;5202;49.138;10.090;2024-01-30T12:51:03;9.10;;;4.27;;
10313;SDS011;5202;49.138;10.090;2024-01-30T12:53:33;5.03;;;3.23;;
10313;SDS011;5202;49.138;10.090;2024-01-30T12:56:02;3.93;;;3.17;;
10313;SDS011;5202;49.138;10.090;2024-01-30T12:58:31;4.63;;;3.13;;
10313;SDS011;5202;49.138;10.090;2024-01-30T13:00:59;6.13;;;3.67;;
10313;SDS011;5202;49.138;10.090;2024-01-30T13:03:28;7.33;;;3.67;;
10313;SDS011;5202;49.138;10.090;2024-01-30T13:05:57;5.13;;;3.37;;
10313;SDS011;5202;49.138;10.090;2024-01-30T13:08:25;6.90;;;3.50;;
10313;SDS011;5202;49.138;10.090;2024-01-30T13:10:55;5.63;;;3.80;;
10313;SDS011;5202;49.138;10.090;2024-01-30T13:13:24;7.93;;;3.97;;
10313;SDS011;5202;49.138;10.090;2024-01-30T13:15:53;5.23;;;3.57;;
10313;SDS011;5202;49.138;10.090;2024-01-30T13:18:22;13.70;;;5.93;;
10313;SDS011;5202;49.138;10.090;2024-01-30T13:20:50;12.03;;;5.70;;
10313;SDS011;5202;49.138;10.090;2024-01-30T13:23:19;6.67;;;4.33;;
10313;SDS011;5202;49.138;10.090;2024-01-30T13:25:47;6.07;;;3.60;;
10313;SDS011;5202;49.138;10.090;2024-01-30T13:28:17;5.50;;;3.63;;
10313;SDS011;5202;49.138;10.090;2024-01-30T13:30:46;9.60;;;3.87;;
10313;SDS011;5202;49.138;10.090;2024-01-30T13:33:14;6.00;;;4.00;;
10313;SDS011;5202;49.138;10.090;2024-01-30T13:35:43;6.27;;;3.40;;
10313;SDS011;5202;49.138;10.090;2024-01-30T13:38:11;9.47;;;3.27;;
10313;SDS011;5202;49.138;10.090;2024-01-30T13:40:40;5.47;;;3.10;;
10313;SDS011;5202;49.138;10.090;2024-01-30T13:43:09;9.43;;;3.17;;
10313;SDS011;5202;49.138;10.090;2024-01-30T13:45:40;8.50;;;3.97;;
10313;SDS011;5202;49.138;10.090;2024-01-30T13:48:09;5.80;;;2.60;;
10313;SDS011;5202;49.138;10.090;2024-01-30T13:50:37;3.67;;;3.00;;
10313;SDS011;5202;49.138;10.090;2024-01-30T13:53:05;4.00;;;3.00;;
10313;SDS011;5202;49.138;10.090;2024-01-30T13:55:34;4.53;;;3.27;;
10313;SDS011;5202;49.138;10.090;2024-01-30T13:58:03;5.87;;;2.87;;
10313;SDS011;5202;49.138;10.090;2024-01-30T14:00:31;7.63;;;3.17;;
10313;SDS011;5202;49.138;10.090;2024-01-30T14:03:02;4.53;;;2.77;;
10313;SDS011;5202;49.138;10.090;2024-01-30T14:05:31;4.90;;;3.50;;
10313;SDS011;5202;49.138;10.090;2024-01-30T14:07:59;4.13;;;2.73;;
10313;SDS011;5202;49.138;10.090;2024-01-30T14:10:28;5.47;;;2.90;;
10313;SDS011;5202;49.138;10.090;2024-01-30T14:12:57;7.43;;;3.60;;
10313;SDS011;5202;49.138;10.090;2024-01-30T14:15:25;5.10;;;3.50;;
10313;SDS011;5202;49.138;10.090;2024-01-30T14:17:55;6.30;;;2.80;;
10313;SDS011;5202;49.138;10.090;2024-01-30T14:20:26;4.23;;;2.80;;
10313;SDS011;5202;49.138;10.090;2024-01-30T14:22:55;17.90;;;10.07;;
10313;SDS011;5202;49.138;10.090;2024-01-30T14:25:23;10.80;;;4.83;;
10313;SDS011;5202;49.138;10.090;2024-01-30T14:27:52;3.93;;;3.00;;
10313;SDS011;5202;49.138;10.090;2024-01-30T14:30:21;8.23;;;4.30;;
10313;SDS011;5202;49.138;10.090;2024-01-30T14:32:49;9.93;;;8.67;;
10313;SDS011;5202;49.138;10.090;2024-01-30T14:35:18;9.37;;;4.53;;
10313;SDS011;5202;49.138;10.090;2024-01-30T14:37:49;4.80;;;3.07;;
10313;SDS011;5202;49.138;10.090;2024-01-30T14:40:17;4.20;;;3.00;;
10313;SDS011;5202;49.138;10.090;2024-01-30T14:42:46;4.10;;;3.10;;
10313;SDS011;5202;49.138;10.090;2024-01-30T14:45:15;5.37;;;2.70;;
10313;SDS011;5202;49.138;10.090;2024-01-30T14:47:44;7.00;;;3.20;;
10313;SDS011;5202;49.138;10.090;2024-01-30T14:50:13;6.20;;;2.87;;